Chicago, Illinois
Traffic Map
Current Weather Conditions
Chicago, Illinois
Broken Clouds
Broken Clouds
37°
Feels Like: 29°
Wind Chill: 29° Ceiling: 14000
Heat Index: 37° Visibility: 10mi
Dew Point: 28° Wind: 12mph
Humidity: 70% Direction: 200° (SSW)
Pressure: 29.91in Gusts: 0mph
Raw Report DataKMDW 191253Z 20010KT 10SM BKN140 BKN200 03/M02 A2991 RMK AO2 SLP137 T00281022
Traffic Incident Summary
Active as of:
Severity:
Category:
InformationThere was an issue retrieving the traffic information for this location. Please try a different location or try again shortly.
Advertisements